Time;durP1;ratioP1;P1;durP2;ratioP2;P2;SDS_P1;SDS_P2;PMS_P1;PMS_P2;Temp;Humidity;BMP_temperature;BMP_pressure;BME280_temperature;BME280_humidity;BME280_pressure;Samples;Min_cycle;Max_cycle;Signal;HPM_P1;HPM_P2
2021/11/21 00:00:47;;;;;;;24.73;13.23;;;6.00;99.90;;;;;;5069028;28;20376;-51
2021/11/21 00:03:13;;;;;;;25.40;14.03;;;6.10;99.90;;;;;;5068930;28;20498;-51
2021/11/21 00:05:44;;;;;;;26.90;13.60;;;6.10;99.90;;;;;;5068055;28;20414;-53
2021/11/21 00:08:13;;;;;;;35.15;14.25;;;6.00;99.90;;;;;;5068704;28;20437;-53
2021/11/21 00:10:39;;;;;;;27.35;13.40;;;5.90;99.90;;;;;;5067101;28;20475;-51
2021/11/21 00:13:05;;;;;;;28.63;13.27;;;6.00;99.90;;;;;;5069515;28;20439;-53
2021/11/21 00:15:32;;;;;;;27.45;13.73;;;5.80;99.90;;;;;;5068235;28;20473;-53
2021/11/21 00:17:58;;;;;;;27.35;13.70;;;5.80;99.90;;;;;;5051284;28;20415;-53
2021/11/21 00:20:24;;;;;;;32.13;14.15;;;5.60;99.90;;;;;;5068895;28;20873;-54
2021/11/21 00:22:50;;;;;;;28.80;13.85;;;5.50;99.90;;;;;;5051016;28;20479;-53
2021/11/21 00:25:16;;;;;;;29.60;13.60;;;5.40;99.90;;;;;;5068872;28;20447;-53
2021/11/21 00:27:41;;;;;;;29.47;13.97;;;5.40;99.90;;;;;;5068475;28;20415;-53
2021/11/21 00:30:07;;;;;;;32.00;14.27;;;5.40;99.90;;;;;;5068723;28;20736;-53
2021/11/21 00:32:33;;;;;;;38.95;15.52;;;5.20;99.90;;;;;;5067771;28;20944;-53
2021/11/21 00:34:59;;;;;;;35.80;14.63;;;5.20;99.90;;;;;;5059581;28;20410;-53
2021/11/21 00:37:27;;;;;;;27.67;13.15;;;5.20;99.90;;;;;;5050513;28;20385;-54
2021/11/21 00:39:53;;;;;;;29.17;14.30;;;5.20;99.90;;;;;;5051671;28;20412;-53
2021/11/21 00:42:19;;;;;;;30.20;13.57;;;5.20;99.90;;;;;;5061411;28;20833;-52
2021/11/21 00:44:45;;;;;;;29.15;14.48;;;5.10;99.90;;;;;;5060335;28;20407;-52
2021/11/21 00:47:11;;;;;;;33.88;14.68;;;5.10;99.90;;;;;;5060032;28;20392;-53
2021/11/21 00:49:38;;;;;;;35.80;15.23;;;5.00;99.90;;;;;;5059253;28;20393;-53
2021/11/21 00:52:05;;;;;;;29.85;14.55;;;5.10;99.90;;;;;;5061251;28;20389;-53
2021/11/21 00:57:15;;;;;;;27.88;13.68;;;5.20;99.90;;;;;;5057630;28;20732;-53
2021/11/21 00:59:41;;;;;;;33.47;14.00;;;5.20;99.90;;;;;;5053697;28;21144;-53
2021/11/21 01:02:09;;;;;;;25.42;13.73;;;5.20;99.90;;;;;;5056550;28;20391;-53
2021/11/21 01:04:36;;;;;;;27.93;14.23;;;5.30;99.90;;;;;;5058710;28;20420;-52
2021/11/21 01:07:02;;;;;;;26.90;12.90;;;5.30;99.90;;;;;;5041535;28;20863;-53
2021/11/21 01:09:28;;;;;;;27.40;13.40;;;5.40;99.90;;;;;;5062113;28;20418;-55
2021/11/21 01:11:56;;;;;;;29.20;12.90;;;5.40;99.90;;;;;;5068870;28;20859;-53
2021/11/21 01:14:25;;;;;;;29.47;13.20;;;5.40;99.90;;;;;;5079316;28;20420;-52
2021/11/21 01:16:51;;;;;;;27.15;13.40;;;5.50;99.90;;;;;;5077643;28;20400;-52
2021/11/21 01:19:17;;;;;;;25.20;13.07;;;5.40;99.90;;;;;;5081659;28;20399;-52
2021/11/21 01:21:43;;;;;;;28.60;12.90;;;5.30;99.90;;;;;;5080472;28;20419;-53
2021/11/21 01:24:09;;;;;;;26.70;12.43;;;5.40;99.90;;;;;;5083484;28;20413;-53
2021/11/21 01:26:35;;;;;;;26.92;12.95;;;5.40;99.90;;;;;;5090950;28;20465;-54
2021/11/21 01:29:00;;;;;;;31.30;12.93;;;5.30;99.90;;;;;;5091685;28;20386;-54
2021/11/21 01:31:26;;;;;;;34.38;14.05;;;5.20;99.90;;;;;;5092021;28;20461;-53
2021/11/21 01:33:52;;;;;;;27.90;12.83;;;5.30;99.90;;;;;;5092009;28;20378;-54
2021/11/21 01:36:18;;;;;;;25.63;12.52;;;5.30;99.90;;;;;;5092528;28;20366;-54
2021/11/21 01:38:44;;;;;;;25.23;12.55;;;5.40;99.90;;;;;;5091773;28;20810;-53
2021/11/21 01:41:12;;;;;;;25.70;13.05;;;5.40;99.90;;;;;;5091968;28;20381;-53
2021/11/21 01:43:39;;;;;;;26.13;12.77;;;5.50;99.90;;;;;;5091610;28;20450;-53
2021/11/21 01:46:05;;;;;;;25.42;11.77;;;5.50;99.90;;;;;;5073420;28;20406;-53
2021/11/21 01:48:30;;;;;;;25.48;12.80;;;5.40;99.90;;;;;;5091442;28;20428;-53
2021/11/21 01:51:01;;;;;;;29.83;12.77;;;5.50;99.90;;;;;;5092010;28;20723;-53
2021/11/21 01:53:27;;;;;;;23.35;11.82;;;5.30;99.90;;;;;;5091819;28;20374;-54
2021/11/21 01:55:53;;;;;;;32.28;12.95;;;5.30;99.90;;;;;;5091275;28;20394;-53
2021/11/21 01:58:20;;;;;;;24.30;11.50;;;5.30;99.90;;;;;;5092338;28;20400;-54
2021/11/21 02:00:48;;;;;;;26.90;11.83;;;5.30;99.90;;;;;;5091243;28;20574;-53
2021/11/21 02:03:14;;;;;;;25.20;11.88;;;5.20;99.90;;;;;;5074126;28;20439;-53
2021/11/21 02:05:40;;;;;;;25.15;12.05;;;5.30;99.90;;;;;;5091111;28;20481;-53
2021/11/21 02:08:07;;;;;;;23.83;11.87;;;5.20;99.90;;;;;;5091852;28;20472;-53
2021/11/21 02:10:34;;;;;;;31.70;13.10;;;5.70;99.90;;;;;;5090767;28;20443;-53
2021/11/21 02:13:03;;;;;;;25.58;11.52;;;5.40;99.90;;;;;;5091739;28;20453;-53
2021/11/21 02:15:28;;;;;;;26.77;12.80;;;5.40;99.90;;;;;;5091285;28;20386;-54
2021/11/21 02:17:55;;;;;;;24.47;11.90;;;5.40;99.90;;;;;;5091401;28;20923;-53
2021/11/21 02:20:26;;;;;;;22.63;11.02;;;5.40;99.90;;;;;;5091785;28;20385;-53
2021/11/21 02:22:52;;;;;;;23.08;11.50;;;5.40;99.90;;;;;;5091103;28;20366;-53
2021/11/21 02:25:17;;;;;;;24.40;11.52;;;6.40;99.90;;;;;;5091436;28;20402;-53
2021/11/21 02:27:43;;;;;;;25.00;12.10;;;5.50;99.90;;;;;;5090721;28;20382;-53
2021/11/21 02:30:10;;;;;;;29.65;12.63;;;5.50;99.90;;;;;;5091320;28;20425;-53
2021/11/21 02:32:43;;;;;;;23.60;10.70;;;5.50;99.90;;;;;;5089653;28;20835;-53
2021/11/21 02:35:08;;;;;;;20.23;9.83;;;5.50;99.90;;;;;;5091038;28;20448;-53
2021/11/21 02:37:37;;;;;;;25.60;11.00;;;5.50;99.90;;;;;;5090941;28;20744;-53
2021/11/21 02:40:04;;;;;;;22.83;10.00;;;5.60;99.90;;;;;;5091087;28;20995;-53
2021/11/21 02:42:34;;;;;;;25.02;9.65;;;5.50;99.90;;;;;;5091000;28;20385;-54
2021/11/21 02:45:00;;;;;;;25.33;10.98;;;5.40;99.90;;;;;;5091392;28;20413;-53
2021/11/21 02:47:32;;;;;;;21.75;10.30;;;5.80;99.90;;;;;;5091054;28;20389;-53
2021/11/21 02:50:02;;;;;;;26.88;10.48;;;5.40;99.90;;;;;;5072760;28;20748;-53
2021/11/21 02:52:27;;;;;;;23.27;9.43;;;5.50;99.90;;;;;;5090962;28;20453;-53
2021/11/21 02:54:56;;;;;;;22.30;10.00;;;5.50;99.90;;;;;;5089956;28;20548;-53
2021/11/21 02:57:23;;;;;;;24.70;9.82;;;5.50;99.90;;;;;;5090929;28;20413;-53
2021/11/21 02:59:49;;;;;;;24.83;9.63;;;5.40;99.90;;;;;;5089897;28;20469;-53
2021/11/21 03:02:18;;;;;;;24.67;10.40;;;5.30;99.90;;;;;;5090897;28;20397;-53
2021/11/21 03:04:45;;;;;;;21.70;10.20;;;5.30;99.90;;;;;;5089975;28;20410;-53
2021/11/21 03:07:11;;;;;;;23.88;10.10;;;5.20;99.90;;;;;;5090993;28;20804;-53
2021/11/21 03:09:37;;;;;;;18.90;8.88;;;5.20;99.90;;;;;;5089665;28;20384;-53
2021/11/21 03:12:03;;;;;;;27.15;10.15;;;5.20;99.90;;;;;;5090390;28;20932;-53
2021/11/21 03:14:29;;;;;;;24.38;9.13;;;5.30;99.90;;;;;;5090657;28;20382;-53
2021/11/21 03:16:55;;;;;;;25.43;9.83;;;5.30;99.90;;;;;;5089880;28;20464;-53
2021/11/21 03:19:20;;;;;;;24.75;9.60;;;5.30;99.90;;;;;;5090558;28;20470;-53
2021/11/21 03:21:46;;;;;;;26.00;9.97;;;5.30;99.90;;;;;;5089902;28;20410;-53
2021/11/21 03:24:12;;;;;;;21.13;9.45;;;5.50;99.90;;;;;;5090321;28;20398;-53
2021/11/21 03:26:38;;;;;;;24.38;9.32;;;5.30;99.90;;;;;;5089790;28;20389;-53
2021/11/21 03:29:05;;;;;;;23.20;8.85;;;5.30;99.90;;;;;;5089970;28;20382;-53
2021/11/21 03:31:33;;;;;;;20.88;9.05;;;5.30;99.90;;;;;;5090408;28;20431;-53
2021/11/21 03:34:03;;;;;;;22.58;9.50;;;5.30;99.90;;;;;;5089957;28;20469;-53
2021/11/21 03:36:29;;;;;;;24.20;9.07;;;5.20;99.90;;;;;;5090180;28;20381;-53
2021/11/21 03:38:55;;;;;;;23.15;8.80;;;5.30;99.90;;;;;;5088974;28;20464;-53
2021/11/21 03:41:20;;;;;;;19.50;8.63;;;5.40;99.90;;;;;;5089998;28;20461;-53
2021/11/21 03:43:46;;;;;;;21.58;8.68;;;5.50;99.90;;;;;;5088767;28;20398;-53
2021/11/21 03:46:11;;;;;;;19.23;8.90;;;5.40;99.90;;;;;;5089292;28;20389;-54
2021/11/21 03:48:37;;;;;;;25.80;8.95;;;5.50;99.90;;;;;;5088620;28;20817;-54
2021/11/21 03:51:03;;;;;;;21.75;9.27;;;5.50;99.90;;;;;;5089780;28;20540;-53
2021/11/21 03:53:29;;;;;;;22.95;9.25;;;5.50;99.90;;;;;;5089779;28;20476;-55
2021/11/21 03:55:55;;;;;;;24.20;8.80;;;5.60;99.90;;;;;;5088911;28;20435;-53
2021/11/21 03:58:20;;;;;;;20.48;8.88;;;5.60;99.90;;;;;;5089983;28;20410;-53
2021/11/21 04:00:46;;;;;;;21.07;8.83;;;5.50;99.90;;;;;;5088898;28;20366;-53
2021/11/21 04:03:15;;;;;;;22.77;8.50;;;5.40;99.90;;;;;;5089698;28;20374;-53
2021/11/21 04:05:40;;;;;;;20.90;8.60;;;5.40;99.90;;;;;;5088685;28;20484;-53
2021/11/21 04:08:06;;;;;;;21.03;9.00;;;5.40;99.90;;;;;;5089515;28;20952;-53
2021/11/21 04:10:33;;;;;;;21.20;8.30;;;5.50;99.90;;;;;;5088325;28;20428;-53
2021/11/21 04:13:00;;;;;;;23.15;8.35;;;5.50;99.90;;;;;;5070604;28;20414;-53
2021/11/21 04:15:26;;;;;;;21.75;8.23;;;5.50;99.90;;;;;;5089596;28;20382;-53
2021/11/21 04:17:52;;;;;;;20.13;8.73;;;5.60;99.90;;;;;;5088706;28;20743;-53
2021/11/21 04:20:17;;;;;;;22.58;8.90;;;5.50;99.90;;;;;;5071312;28;20530;-53
2021/11/21 04:22:43;;;;;;;20.13;8.87;;;5.60;99.90;;;;;;5088736;28;20401;-53
2021/11/21 04:25:09;;;;;;;21.45;8.32;;;5.60;99.90;;;;;;5088923;28;20397;-53
2021/11/21 04:27:35;;;;;;;20.52;8.82;;;5.70;99.90;;;;;;5089129;28;20807;-53
2021/11/21 04:30:01;;;;;;;22.40;8.85;;;5.70;99.90;;;;;;5088824;28;20417;-53
2021/11/21 04:32:29;;;;;;;19.80;8.70;;;5.30;99.90;;;;;;5089606;28;20382;-53
2021/11/21 04:34:55;;;;;;;21.73;8.30;;;5.50;99.90;;;;;;5088401;28;20386;-53
2021/11/21 04:37:21;;;;;;;23.20;9.00;;;5.30;99.90;;;;;;5070885;28;20718;-53
2021/11/21 04:39:48;;;;;;;16.90;7.97;;;5.20;99.90;;;;;;5088130;28;20366;-53
2021/11/21 04:42:14;;;;;;;19.98;8.20;;;5.30;99.90;;;;;;5089007;28;20386;-53
2021/11/21 04:44:42;;;;;;;21.15;8.90;;;5.30;99.90;;;;;;5088505;28;20405;-54
2021/11/21 04:47:09;;;;;;;20.65;8.05;;;5.20;99.90;;;;;;5089114;28;20457;-53
2021/11/21 04:49:34;;;;;;;22.02;8.40;;;5.20;99.90;;;;;;5087916;28;20425;-53
2021/11/21 04:52:00;;;;;;;18.35;7.80;;;5.20;99.90;;;;;;5088352;28;20402;-53
2021/11/21 04:54:26;;;;;;;19.60;8.50;;;5.20;99.90;;;;;;5070740;28;20396;-53
2021/11/21 04:56:52;;;;;;;22.02;8.68;;;5.20;99.90;;;;;;5072464;28;20396;-53
2021/11/21 04:59:18;;;;;;;21.65;8.57;;;5.20;99.90;;;;;;5093007;28;20379;-53
2021/11/21 05:01:44;;;;;;;19.52;8.75;;;5.30;99.90;;;;;;5092269;28;20370;-53
2021/11/21 05:04:10;;;;;;;22.02;8.55;;;5.40;99.90;;;;;;5092879;28;20484;-53
2021/11/21 05:06:36;;;;;;;18.23;8.35;;;5.40;99.90;;;;;;5093460;28;20465;-53
2021/11/21 05:09:04;;;;;;;23.05;9.55;;;5.40;99.90;;;;;;5092138;28;20374;-53
2021/11/21 05:11:30;;;;;;;21.60;9.50;;;5.40;99.90;;;;;;5086337;28;20908;-53
2021/11/21 05:13:56;;;;;;;23.83;9.43;;;5.40;99.90;;;;;;5071992;28;20391;-53
2021/11/21 05:16:21;;;;;;;22.43;8.73;;;5.50;99.90;;;;;;5072600;28;20721;-53
2021/11/21 05:18:47;;;;;;;20.90;9.30;;;5.70;99.90;;;;;;5071626;28;20917;-53
2021/11/21 05:21:12;;;;;;;22.23;8.53;;;5.60;99.90;;;;;;5072684;28;20375;-53
2021/11/21 05:23:38;;;;;;;21.85;8.52;;;5.50;99.90;;;;;;5054118;28;20891;-53
2021/11/21 05:26:04;;;;;;;23.87;9.30;;;5.90;99.90;;;;;;5071486;28;20447;-51
2021/11/21 05:28:30;;;;;;;24.95;9.88;;;5.60;99.90;;;;;;5072211;28;20391;-51
2021/11/21 05:30:55;;;;;;;24.83;9.32;;;5.50;99.90;;;;;;5071565;28;20469;-51
2021/11/21 05:33:21;;;;;;;23.87;9.10;;;5.50;99.90;;;;;;5072029;28;20885;-51
2021/11/21 05:35:47;;;;;;;24.48;10.40;;;5.50;99.90;;;;;;5071210;28;20415;-51
2021/11/21 05:38:12;;;;;;;24.30;8.63;;;5.50;99.90;;;;;;5071724;28;20388;-52
2021/11/21 05:40:38;;;;;;;23.40;9.50;;;5.50;99.90;;;;;;5071903;28;20799;-52
2021/11/21 05:43:04;;;;;;;21.23;8.90;;;5.60;99.90;;;;;;5053268;28;20914;-52
2021/11/21 05:45:30;;;;;;;20.38;8.35;;;5.70;99.90;;;;;;5071996;28;20399;-52
2021/11/21 05:47:57;;;;;;;20.67;8.53;;;5.70;99.90;;;;;;5071036;28;20391;-52
2021/11/21 05:50:22;;;;;;;23.65;9.38;;;5.70;99.90;;;;;;5072004;28;20430;-52
2021/11/21 05:52:49;;;;;;;22.55;8.93;;;5.70;99.90;;;;;;5071002;28;20415;-52
2021/11/21 05:55:17;;;;;;;21.77;8.85;;;5.70;99.90;;;;;;5071561;28;20387;-52
2021/11/21 05:57:43;;;;;;;20.73;7.80;;;5.70;99.90;;;;;;5071546;28;20404;-53
2021/11/21 06:00:12;;;;;;;19.40;8.20;;;5.50;99.90;;;;;;5071668;28;20411;-52
2021/11/21 06:02:39;;;;;;;22.20;9.15;;;5.60;99.90;;;;;;5071566;28;20434;-52
2021/11/21 06:05:05;;;;;;;22.00;7.90;;;5.60;99.90;;;;;;5070936;28;21280;-52
2021/11/21 06:07:31;;;;;;;22.92;8.95;;;5.60;99.90;;;;;;5071116;28;20382;-52
2021/11/21 06:09:57;;;;;;;22.65;8.77;;;5.70;99.90;;;;;;5070636;28;20751;-52
2021/11/21 06:12:22;;;;;;;21.40;8.18;;;5.70;99.90;;;;;;5071383;28;20469;-52
2021/11/21 06:14:48;;;;;;;23.10;9.00;;;5.60;99.90;;;;;;5070546;28;20733;-52
2021/11/21 06:17:14;;;;;;;24.23;8.60;;;5.60;99.90;;;;;;5071194;28;20441;-52
2021/11/21 06:19:43;;;;;;;23.45;9.20;;;5.50;99.90;;;;;;5070807;28;20531;-52
2021/11/21 06:22:09;;;;;;;24.98;8.85;;;5.60;99.90;;;;;;5071208;28;20396;-52
2021/11/21 06:24:35;;;;;;;24.27;9.98;;;5.60;99.90;;;;;;5071009;28;20410;-52
2021/11/21 06:27:01;;;;;;;24.83;10.02;;;5.50;99.90;;;;;;5070677;28;20856;-52
2021/11/21 06:29:26;;;;;;;28.00;9.93;;;5.70;99.90;;;;;;5071114;28;20475;-52
2021/11/21 06:31:52;;;;;;;23.75;9.95;;;5.70;99.90;;;;;;5070319;28;20421;-52
2021/11/21 06:34:18;;;;;;;24.77;10.05;;;5.70;99.90;;;;;;5071107;28;20392;-52
2021/11/21 06:36:44;;;;;;;24.07;10.10;;;5.80;99.90;;;;;;5070438;28;20439;-56
2021/11/21 06:39:10;;;;;;;26.08;10.65;;;5.80;99.90;;;;;;5070633;28;20463;-52
2021/11/21 06:41:37;;;;;;;24.52;10.02;;;5.70;99.90;;;;;;5070679;28;20406;-52
2021/11/21 06:44:04;;;;;;;26.80;10.52;;;5.70;99.90;;;;;;5070074;28;20579;-52
2021/11/21 06:46:30;;;;;;;25.23;9.90;;;5.70;99.90;;;;;;5071020;28;20388;-52
2021/11/21 06:48:56;;;;;;;25.00;10.18;;;5.80;99.90;;;;;;5052268;28;20460;-52
2021/11/21 06:51:22;;;;;;;27.40;11.25;;;6.20;99.90;;;;;;5070757;28;20364;-52
2021/11/21 06:53:49;;;;;;;26.67;11.40;;;5.70;99.90;;;;;;5070152;28;20871;-53
2021/11/21 06:56:16;;;;;;;37.33;14.13;;;5.70;99.90;;;;;;5070937;28;20380;-52
2021/11/21 06:58:41;;;;;;;35.60;15.05;;;5.60;99.90;;;;;;5070841;28;20474;-52
2021/11/21 07:01:07;;;;;;;32.67;14.20;;;5.20;99.90;;;;;;5069897;28;20541;-52
2021/11/21 07:03:33;;;;;;;33.25;14.90;;;5.20;99.90;;;;;;5066305;28;20397;-55
2021/11/21 07:05:58;;;;;;;34.20;14.70;;;5.10;99.90;;;;;;5058386;28;20413;-52
2021/11/21 07:08:24;;;;;;;37.28;15.93;;;5.10;99.90;;;;;;5064695;28;20391;-52
2021/11/21 07:10:50;;;;;;;36.73;15.00;;;5.20;99.90;;;;;;5053264;28;20397;-53
2021/11/21 07:13:16;;;;;;;39.38;15.23;;;5.10;99.90;;;;;;5071777;28;20738;-55
2021/11/21 07:15:41;;;;;;;38.70;15.15;;;5.20;99.90;;;;;;5090381;28;20469;-53
2021/11/21 07:18:07;;;;;;;35.17;15.37;;;5.20;99.90;;;;;;5089655;28;20382;-52
2021/11/21 07:20:33;;;;;;;37.13;15.85;;;5.20;99.90;;;;;;5089751;28;20382;-53
2021/11/21 07:22:58;;;;;;;42.03;16.52;;;6.10;99.90;;;;;;5074789;28;20382;-53
2021/11/21 07:25:25;;;;;;;84.20;30.43;;;5.30;99.90;;;;;;5069936;28;20852;-53
2021/11/21 07:27:52;;;;;;;55.07;24.23;;;5.10;99.90;;;;;;5069212;28;20410;-53
2021/11/21 07:30:21;;;;;;;58.50;23.40;;;5.00;99.90;;;;;;5069705;28;20400;-54
2021/11/21 07:32:48;;;;;;;76.75;29.30;;;4.90;99.90;;;;;;5070228;28;20419;-55
2021/11/21 07:35:16;;;;;;;51.55;20.02;;;4.70;99.90;;;;;;5073044;28;20395;-54
2021/11/21 07:37:42;;;;;;;51.40;21.92;;;4.60;99.90;;;;;;5080354;28;20386;-53
2021/11/21 07:40:10;;;;;;;44.90;19.75;;;4.70;99.90;;;;;;5077893;28;20411;-54
2021/11/21 07:42:37;;;;;;;43.05;18.52;;;4.70;99.90;;;;;;5082829;28;20413;-54
2021/11/21 07:45:08;;;;;;;46.70;19.37;;;4.70;99.90;;;;;;5085675;28;20420;-53
2021/11/21 07:47:34;;;;;;;43.65;19.60;;;4.70;99.90;;;;;;5069704;28;20410;-53
2021/11/21 07:49:59;;;;;;;44.80;19.50;;;4.80;99.90;;;;;;5060480;28;20415;-53
2021/11/21 07:52:26;;;;;;;45.33;19.53;;;4.90;99.90;;;;;;5068985;28;20447;-54
2021/11/21 07:54:52;;;;;;;48.90;20.83;;;4.70;99.90;;;;;;5068151;28;20404;-55
2021/11/21 07:57:18;;;;;;;44.97;20.77;;;4.70;99.90;;;;;;5081200;28;20410;-54
2021/11/21 07:59:44;;;;;;;43.85;20.15;;;4.60;99.90;;;;;;5075416;28;20394;-55
2021/11/21 08:02:11;;;;;;;48.58;18.17;;;4.70;99.90;;;;;;5084499;28;20412;-54
2021/11/21 08:04:36;;;;;;;40.47;17.17;;;4.70;99.90;;;;;;5078408;28;20889;-54
2021/11/21 08:07:03;;;;;;;37.22;16.20;;;4.60;99.90;;;;;;5078931;28;20394;-54
2021/11/21 08:09:29;;;;;;;32.35;14.27;;;4.50;99.90;;;;;;5088305;28;20743;-54
2021/11/21 08:11:55;;;;;;;35.92;15.85;;;4.30;99.90;;;;;;5080659;28;20411;-55
2021/11/21 08:14:20;;;;;;;30.50;14.95;;;4.40;99.90;;;;;;5063098;28;20390;-54
2021/11/21 08:16:47;;;;;;;34.80;15.63;;;5.20;99.90;;;;;;5082088;28;20388;-54
2021/11/21 08:19:13;;;;;;;34.03;14.98;;;4.70;99.90;;;;;;5082652;28;21237;-54
2021/11/21 08:21:39;;;;;;;33.85;14.00;;;4.50;99.90;;;;;;5077647;28;20402;-54
2021/11/21 08:24:07;;;;;;;33.10;14.20;;;4.40;99.90;;;;;;5079458;28;20478;-55
2021/11/21 08:26:36;;;;;;;31.20;14.00;;;4.40;99.90;;;;;;5079141;28;20490;-54
2021/11/21 08:29:04;;;;;;;30.10;11.50;;;4.50;99.90;;;;;;5076539;28;20481;-54
2021/11/21 08:31:30;;;;;;;26.77;12.18;;;4.40;99.90;;;;;;5085379;28;20495;-54
2021/11/21 08:33:56;;;;;;;25.60;10.93;;;5.30;99.90;;;;;;5079579;28;20750;-54
2021/11/21 08:36:22;;;;;;;27.75;12.05;;;4.40;99.90;;;;;;5081037;28;20398;-54
2021/11/21 08:38:48;;;;;;;22.85;11.30;;;4.40;99.90;;;;;;5081690;28;20399;-54
2021/11/21 08:41:13;;;;;;;28.38;12.35;;;4.40;99.90;;;;;;5080520;28;20398;-54
2021/11/21 08:43:39;;;;;;;29.50;12.00;;;4.40;99.90;;;;;;5080226;28;20398;-54
2021/11/21 08:46:05;;;;;;;28.33;12.60;;;4.50;99.90;;;;;;5075701;28;20416;-54
2021/11/21 08:48:31;;;;;;;26.23;11.52;;;4.70;99.90;;;;;;5078408;28;20401;-54
2021/11/21 08:50:57;;;;;;;27.15;11.73;;;4.60;99.90;;;;;;5079697;28;20390;-56
2021/11/21 08:53:23;;;;;;;26.52;11.50;;;4.70;99.90;;;;;;5068180;28;20835;-55
2021/11/21 08:55:49;;;;;;;25.48;11.60;;;4.60;99.90;;;;;;5085755;28;20474;-54
2021/11/21 08:58:15;;;;;;;26.20;11.45;;;5.20;99.90;;;;;;5082451;28;21008;-54
2021/11/21 09:00:41;;;;;;;27.60;13.05;;;4.80;99.90;;;;;;5083022;28;20425;-54
2021/11/21 09:03:07;;;;;;;29.10;12.90;;;4.70;99.90;;;;;;5082509;28;20781;-54
2021/11/21 09:05:32;;;;;;;25.10;11.88;;;4.60;99.90;;;;;;5087536;28;20899;-54
2021/11/21 09:07:58;;;;;;;31.05;12.50;;;4.50;99.90;;;;;;5082252;28;20402;-55
2021/11/21 09:10:24;;;;;;;28.93;12.83;;;4.50;99.90;;;;;;5082121;28;20508;-54
2021/11/21 09:12:50;;;;;;;28.47;12.73;;;4.70;99.90;;;;;;5057389;28;20493;-55
2021/11/21 09:15:19;;;;;;;31.63;14.18;;;4.70;99.90;;;;;;5057850;28;20386;-54
2021/11/21 09:17:46;;;;;;;31.33;14.65;;;4.80;99.90;;;;;;5058286;28;20401;-55
2021/11/21 09:20:13;;;;;;;29.25;12.55;;;4.80;99.90;;;;;;5062413;28;20395;-54
2021/11/21 09:22:39;;;;;;;31.13;12.40;;;4.90;99.90;;;;;;5065190;28;20446;-55
2021/11/21 09:25:06;;;;;;;30.27;13.15;;;4.80;99.90;;;;;;5058915;28;20901;-55
2021/11/21 09:27:31;;;;;;;27.55;12.07;;;4.80;99.90;;;;;;5062611;28;20472;-54
2021/11/21 09:29:57;;;;;;;32.80;11.87;;;4.70;99.90;;;;;;5059665;28;20434;-56
2021/11/21 09:32:23;;;;;;;26.63;11.20;;;4.60;99.90;;;;;;5062519;28;20551;-54
2021/11/21 09:34:49;;;;;;;31.83;12.18;;;4.40;99.90;;;;;;5060251;28;20407;-54
2021/11/21 09:37:15;;;;;;;31.08;12.70;;;4.40;99.90;;;;;;5056583;28;20386;-54
2021/11/21 09:39:41;;;;;;;31.20;12.88;;;4.50;99.90;;;;;;5062545;28;20952;-54
2021/11/21 09:42:07;;;;;;;28.33;11.45;;;4.60;99.90;;;;;;5061549;28;20442;-55
2021/11/21 09:44:33;;;;;;;28.20;11.70;;;4.70;99.90;;;;;;5064462;28;20769;-55
2021/11/21 09:46:59;;;;;;;29.57;10.60;;;4.70;99.90;;;;;;5062985;28;20492;-55
2021/11/21 09:49:28;;;;;;;31.67;11.95;;;4.50;99.90;;;;;;5061617;28;20399;-54
2021/11/21 09:51:54;;;;;;;23.92;10.38;;;4.60;99.90;;;;;;5065617;28;20873;-54
2021/11/21 09:54:23;;;;;;;23.10;9.73;;;4.60;99.90;;;;;;5068034;28;20477;-55
2021/11/21 09:56:50;;;;;;;23.85;9.63;;;4.60;99.90;;;;;;5066680;28;20384;-55
2021/11/21 09:59:53;;;;;;;25.27;9.75;;;4.60;99.90;;;;;;5050439;28;20686;-55
2021/11/21 10:02:43;;;;;;;20.73;9.50;;;4.60;99.90;;;;;;5065188;28;20402;-54
2021/11/21 10:05:27;;;;;;;23.20;10.18;;;4.60;99.90;;;;;;5028507;28;20424;-55
2021/11/21 10:08:14;;;;;;;24.38;10.10;;;4.60;99.90;;;;;;5060892;28;20410;-55
2021/11/21 10:10:43;;;;;;;25.35;9.30;;;4.70;99.90;;;;;;5057472;28;20413;-55
2021/11/21 10:13:36;;;;;;;25.67;10.45;;;6.20;99.90;;;;;;5085086;28;20506;-54
2021/11/21 10:16:21;;;;;;;24.65;10.00;;;4.70;99.90;;;;;;5083913;28;20418;-54
2021/11/21 10:19:03;;;;;;;20.08;8.20;;;4.80;99.90;;;;;;5076394;28;21226;-55
2021/11/21 10:21:37;;;;;;;19.20;8.70;;;4.80;99.90;;;;;;5082472;28;20407;-55
2021/11/21 10:24:15;;;;;;;18.10;8.50;;;4.70;99.90;;;;;;5080102;28;20469;-56
2021/11/21 10:26:41;;;;;;;18.73;8.40;;;4.60;99.90;;;;;;5078412;28;20425;-54
2021/11/21 10:29:25;;;;;;;18.23;8.00;;;4.60;99.90;;;;;;5084643;28;20441;-55
2021/11/21 10:31:50;;;;;;;17.73;8.27;;;4.50;99.90;;;;;;5074999;28;20419;-54
2021/11/21 10:34:16;;;;;;;19.30;7.00;;;4.40;99.90;;;;;;5083833;28;20901;-54
2021/11/21 10:36:42;;;;;;;16.33;6.90;;;4.30;99.90;;;;;;5076365;28;20528;-55
2021/11/21 10:39:09;;;;;;;18.50;7.95;;;4.40;99.90;;;;;;5076887;28;20390;-55
2021/11/21 10:41:37;;;;;;;16.70;7.30;;;4.60;99.90;;;;;;5079491;28;20791;-54
2021/11/21 10:44:04;;;;;;;16.48;7.20;;;4.70;99.90;;;;;;5083900;28;20946;-54
2021/11/21 10:46:33;;;;;;;16.33;7.70;;;4.80;99.90;;;;;;5074295;28;20401;-55
2021/11/21 10:49:21;;;;;;;18.77;7.70;;;4.80;99.90;;;;;;5076108;28;20452;-55
2021/11/21 10:51:58;;;;;;;19.05;8.43;;;4.70;99.90;;;;;;5078150;28;21091;-54
2021/11/21 10:54:31;;;;;;;15.70;7.00;;;4.70;99.90;;;;;;5070808;28;20499;-54
2021/11/21 10:56:59;;;;;;;16.40;7.05;;;4.60;99.90;;;;;;5081777;28;20387;-56
2021/11/21 10:59:41;;;;;;;18.40;8.07;;;4.50;99.90;;;;;;5076113;28;20891;-55
2021/11/21 11:02:13;;;;;;;15.15;6.57;;;4.60;99.90;;;;;;5076888;28;20390;-54
2021/11/21 11:04:57;;;;;;;15.27;7.00;;;4.70;99.90;;;;;;5075108;28;20414;-55
2021/11/21 11:07:23;;;;;;;16.08;7.05;;;4.90;99.90;;;;;;5069938;28;20412;-55
2021/11/21 11:09:51;;;;;;;16.73;7.28;;;5.00;99.90;;;;;;5058953;28;20398;-55
2021/11/21 11:12:17;;;;;;;17.90;8.20;;;5.00;99.90;;;;;;5076318;28;20395;-54
2021/11/21 11:14:43;;;;;;;17.52;7.35;;;4.90;99.90;;;;;;5070122;28;20962;-55
2021/11/21 11:17:09;;;;;;;17.73;8.20;;;4.80;99.90;;;;;;5068752;28;20504;-54
2021/11/21 11:19:36;;;;;;;15.70;7.38;;;4.90;99.90;;;;;;5073358;28;20841;-55
2021/11/21 11:22:04;;;;;;;17.63;7.35;;;4.90;99.90;;;;;;5072234;28;20483;-54
2021/11/21 11:24:31;;;;;;;14.40;7.20;;;5.00;99.90;;;;;;5076418;28;20879;-54
2021/11/21 11:27:01;;;;;;;16.40;7.40;;;5.10;99.90;;;;;;5080556;28;20390;-54
2021/11/21 11:29:34;;;;;;;15.07;6.75;;;5.10;99.90;;;;;;5084683;28;20401;-54
2021/11/21 11:32:28;;;;;;;14.73;6.65;;;5.10;99.90;;;;;;5081411;28;20402;-55
2021/11/21 11:34:54;;;;;;;17.90;6.75;;;5.10;99.90;;;;;;5079099;28;20405;-54
2021/11/21 11:37:40;;;;;;;16.35;7.93;;;5.10;99.90;;;;;;5083466;28;20400;-55
2021/11/21 11:40:24;;;;;;;17.08;8.55;;;5.30;99.90;;;;;;5075457;28;20489;-54
2021/11/21 11:42:50;;;;;;;14.95;8.13;;;5.40;99.90;;;;;;5071623;28;20885;-54
2021/11/21 11:45:15;;;;;;;15.53;7.63;;;5.40;99.90;;;;;;5057119;28;20430;-54
2021/11/21 11:47:41;;;;;;;18.95;8.48;;;5.50;99.90;;;;;;5078562;28;20481;-52
2021/11/21 11:50:07;;;;;;;13.60;7.27;;;5.60;99.90;;;;;;5079178;28;20406;-52
2021/11/21 11:52:52;;;;;;;14.93;7.30;;;5.70;99.90;;;;;;5076447;28;20384;-52
2021/11/21 11:55:19;;;;;;;15.20;7.13;;;5.50;99.90;;;;;;5051893;28;20398;-52
2021/11/21 11:57:45;;;;;;;17.98;6.82;;;5.50;99.90;;;;;;5074936;28;20727;-53
2021/11/21 12:00:32;;;;;;;14.68;6.90;;;5.40;99.90;;;;;;5077145;28;20731;-54
2021/11/21 12:02:59;;;;;;;13.98;6.90;;;5.50;99.90;;;;;;5078452;28;20406;-54
2021/11/21 12:05:35;;;;;;;14.52;7.55;;;5.70;99.90;;;;;;5081681;28;20419;-53
2021/11/21 12:08:16;;;;;;;13.30;6.10;;;5.80;99.90;;;;;;5078984;28;20879;-54
2021/11/21 12:11:00;;;;;;;16.35;6.97;;;5.70;99.90;;;;;;5079208;28;20478;-53
2021/11/21 12:13:32;;;;;;;13.60;6.57;;;5.50;99.90;;;;;;5073743;28;20486;-53
2021/11/21 12:16:05;;;;;;;13.27;6.00;;;5.30;99.90;;;;;;5083422;28;20615;-53
2021/11/21 12:19:01;;;;;;;10.90;5.22;;;5.40;99.90;;;;;;5078356;28;20401;-54
2021/11/21 12:21:39;;;;;;;12.68;5.80;;;5.50;99.90;;;;;;5075863;28;20471;-53
2021/11/21 12:24:23;;;;;;;14.00;6.17;;;5.60;99.90;;;;;;5073247;28;20759;-54
2021/11/21 12:26:48;;;;;;;14.88;6.65;;;5.60;99.90;;;;;;5073987;28;21237;-53
2021/11/21 12:29:35;;;;;;;14.00;6.80;;;5.80;99.90;;;;;;5073396;28;20378;-54
2021/11/21 12:32:23;;;;;;;13.77;5.57;;;5.90;99.90;;;;;;5080144;28;20394;-54
2021/11/21 12:34:49;;;;;;;11.55;6.30;;;5.90;99.90;;;;;;5074547;28;20885;-53
2021/11/21 12:37:19;;;;;;;10.48;5.38;;;6.00;99.90;;;;;;5079180;28;20383;-53
2021/11/21 12:40:09;;;;;;;13.00;6.43;;;5.80;99.90;;;;;;5075528;28;20394;-53
2021/11/21 12:42:37;;;;;;;13.55;6.85;;;5.80;99.90;;;;;;5077160;28;20396;-53
2021/11/21 12:45:25;;;;;;;11.80;5.68;;;5.80;99.90;;;;;;5078737;28;20401;-54
2021/11/21 12:47:54;;;;;;;11.25;5.75;;;5.70;99.90;;;;;;5080306;28;20413;-53